PN05 weather

Fort Lee Heliport
Barnsboro, Pennsylvania, United States

Public forecast

Using degrees Fahrenheit for public forecast. Weather courtesy of forecast.io.

METAR (pilot weather report)

Closest report is Indiana County/Jimmy Stewart Fld/ Airport, 12.7 nm (23.6 km) W. Retrieved 2019/05/19 21:35 UTC (16 minutes ago):

KIDI 192135Z AUTO 23015G21KT 10SM CLR 29/17 A2988 RMK A01

TAF (pilot weather forecast)

Closest forecast is John Murtha Johnstown Cambria County Airport, 20.1 nm (37.3 km) S. Retrieved 2019/05/19 18:24 UTC (3 hours ago):

TAF KJST 191720Z 1918/2018 21010G20KT P6SM BKN035 TEMPO 1922/1924 3SM TSRA BR OVC015CB FM200300 20008KT P6SM OVC050 FM200900 23008KT P6SM OVC015 FM201400 27010KT P6SM SCT025 BKN040